createdAt,value
2018-07-17T00:00:11.543Z,17.40
2018-07-17T00:02:39.765Z,17.30
2018-07-17T00:05:08.557Z,17.30
2018-07-17T00:07:36.870Z,17.20
2018-07-17T00:10:05.177Z,17.20
2018-07-17T00:12:33.319Z,17.20
2018-07-17T00:15:01.495Z,17.20
2018-07-17T00:17:29.618Z,17.20
2018-07-17T00:19:57.789Z,17.20
2018-07-17T00:22:25.905Z,17.20
2018-07-17T00:24:54.019Z,17.20
2018-07-17T00:27:22.178Z,17.20
2018-07-17T00:29:50.300Z,17.20
2018-07-17T00:32:18.433Z,17.30
2018-07-17T00:34:46.549Z,17.30
2018-07-17T00:37:14.658Z,17.40
2018-07-17T00:39:42.777Z,17.40
2018-07-17T00:42:10.883Z,17.40
2018-07-17T00:44:38.982Z,17.50
2018-07-17T00:47:07.097Z,17.40
2018-07-17T00:49:35.204Z,17.40
2018-07-17T00:52:03.374Z,17.30
2018-07-17T00:54:31.469Z,17.10
2018-07-17T00:56:59.589Z,17.00
2018-07-17T00:59:27.713Z,17.00
2018-07-17T01:02:01.142Z,17.00
2018-07-17T01:04:34.457Z,17.00
2018-07-17T01:07:07.878Z,17.10
2018-07-17T01:09:41.470Z,17.00
2018-07-17T01:12:12.811Z,16.90
2018-07-17T01:14:52.810Z,16.90
2018-07-17T01:17:21.304Z,16.80
2018-07-17T01:19:49.413Z,16.70
2018-07-17T01:22:17.528Z,16.70
2018-07-17T01:24:45.638Z,16.80
2018-07-17T01:27:13.825Z,16.70
2018-07-17T01:29:41.955Z,16.70
2018-07-17T01:32:10.051Z,16.60
2018-07-17T01:34:38.184Z,16.50
2018-07-17T01:37:06.279Z,16.40
2018-07-17T01:39:34.417Z,16.40
2018-07-17T01:42:02.506Z,16.40
2018-07-17T01:44:30.609Z,16.40
2018-07-17T01:46:58.722Z,16.50
2018-07-17T01:49:26.866Z,16.60
2018-07-17T01:51:54.975Z,16.60
2018-07-17T01:54:23.081Z,16.50
2018-07-17T01:56:51.192Z,16.30
2018-07-17T01:59:19.318Z,16.30
2018-07-17T02:01:47.418Z,16.30
2018-07-17T02:04:15.519Z,16.30
2018-07-17T02:06:43.594Z,16.20
2018-07-17T02:09:12.505Z,16.20
2018-07-17T02:11:40.592Z,16.20
2018-07-17T02:14:08.771Z,16.10
2018-07-17T02:16:36.869Z,16.00
2018-07-17T02:19:05.058Z,15.90
2018-07-17T02:21:33.148Z,15.80
2018-07-17T02:24:01.261Z,15.70
2018-07-17T02:26:29.381Z,15.70
2018-07-17T02:28:57.481Z,15.70
2018-07-17T02:31:25.727Z,15.70
2018-07-17T02:33:53.806Z,15.60
2018-07-17T02:36:21.893Z,15.60
2018-07-17T02:38:49.988Z,15.70
2018-07-17T02:41:18.063Z,15.70
2018-07-17T02:43:46.154Z,15.70
2018-07-17T02:46:14.258Z,15.70
2018-07-17T02:48:42.351Z,15.70
2018-07-17T02:51:10.578Z,15.70
2018-07-17T02:53:38.674Z,15.70
2018-07-17T02:56:06.782Z,15.60
2018-07-17T02:58:34.922Z,15.60
2018-07-17T03:01:03.059Z,15.60
2018-07-17T03:03:31.158Z,15.50
2018-07-17T03:05:59.264Z,15.60
2018-07-17T03:08:27.356Z,15.60
2018-07-17T03:10:55.450Z,15.60
2018-07-17T03:13:23.542Z,15.50
2018-07-17T03:15:51.634Z,15.40
2018-07-17T03:18:19.722Z,15.40
2018-07-17T03:20:47.814Z,15.30
2018-07-17T03:23:15.906Z,15.30
2018-07-17T03:25:43.990Z,15.30
2018-07-17T03:28:12.103Z,15.30
2018-07-17T03:30:40.241Z,15.30
2018-07-17T03:33:08.336Z,15.30
2018-07-17T03:35:36.485Z,15.30
2018-07-17T03:38:04.643Z,15.30
2018-07-17T03:40:32.740Z,15.20
2018-07-17T03:43:00.837Z,15.20
2018-07-17T03:45:28.933Z,15.10
2018-07-17T03:47:57.026Z,15.20
2018-07-17T03:50:25.109Z,15.10
2018-07-17T03:52:53.193Z,15.00
2018-07-17T03:55:21.298Z,15.00
2018-07-17T03:57:49.401Z,15.00
2018-07-17T04:00:17.499Z,15.10
2018-07-17T04:02:45.635Z,15.20
2018-07-17T04:05:13.747Z,15.20
2018-07-17T04:07:41.892Z,15.20
2018-07-17T04:10:09.989Z,15.20
2018-07-17T04:12:38.152Z,15.20
2018-07-17T04:15:06.260Z,15.20
2018-07-17T04:17:34.395Z,15.20
2018-07-17T04:20:02.486Z,15.30
2018-07-17T04:22:30.601Z,15.30
2018-07-17T04:24:58.714Z,15.40
2018-07-17T04:27:26.906Z,15.40
2018-07-17T04:29:55.270Z,15.40
2018-07-17T04:32:23.258Z,15.40
2018-07-17T04:34:51.384Z,15.50
2018-07-17T04:37:19.487Z,15.60
2018-07-17T04:39:47.590Z,15.60
2018-07-17T04:42:15.691Z,15.60
2018-07-17T04:44:43.805Z,15.60
2018-07-17T04:47:11.901Z,15.70
2018-07-17T04:49:40.170Z,15.70
2018-07-17T04:52:08.273Z,15.70
2018-07-17T04:54:36.389Z,15.70
2018-07-17T04:57:04.562Z,15.80
2018-07-17T04:59:32.666Z,15.90
2018-07-17T05:02:00.798Z,15.90
2018-07-17T05:04:28.849Z,16.00
2018-07-17T05:06:57.057Z,16.00
2018-07-17T05:09:25.131Z,16.10
2018-07-17T05:11:53.302Z,16.20
2018-07-17T05:14:21.407Z,16.30
2018-07-17T05:16:49.476Z,16.40
2018-07-17T05:19:17.561Z,16.40
2018-07-17T05:21:45.750Z,16.50
2018-07-17T05:24:13.853Z,16.60
2018-07-17T05:26:41.987Z,16.70
2018-07-17T05:29:10.102Z,16.80
2018-07-17T05:31:38.210Z,16.90
2018-07-17T05:34:06.355Z,17.00
2018-07-17T05:36:34.487Z,17.20
2018-07-17T05:39:02.629Z,17.30
2018-07-17T05:41:30.698Z,17.50
2018-07-17T05:43:58.798Z,17.60
2018-07-17T05:46:26.918Z,17.50
2018-07-17T05:48:54.991Z,17.40
2018-07-17T05:51:23.091Z,17.50
2018-07-17T05:53:51.177Z,17.70
2018-07-17T05:56:19.260Z,17.90
2018-07-17T05:58:47.353Z,18.10
2018-07-17T06:01:15.459Z,17.90
2018-07-17T06:03:43.553Z,18.00
2018-07-17T06:06:11.650Z,18.00
2018-07-17T06:08:39.757Z,18.20
2018-07-17T06:11:07.845Z,18.40
2018-07-17T06:13:36.958Z,18.60
2018-07-17T06:16:05.046Z,18.70
2018-07-17T06:18:33.153Z,18.90
2018-07-17T06:21:01.289Z,19.10
2018-07-17T06:23:29.405Z,19.30
2018-07-17T06:25:57.502Z,19.50
2018-07-17T06:28:25.616Z,19.60
2018-07-17T06:30:53.732Z,19.70
2018-07-17T06:33:21.833Z,19.80
2018-07-17T06:35:49.957Z,19.90
2018-07-17T06:38:18.061Z,20.20
2018-07-17T06:40:46.162Z,20.20
2018-07-17T06:43:14.267Z,20.30
2018-07-17T06:45:42.398Z,20.70
2018-07-17T06:48:10.506Z,20.90
2018-07-17T06:50:38.786Z,21.10
2018-07-17T06:53:07.384Z,21.20
2018-07-17T06:55:35.526Z,21.50
2018-07-17T06:58:04.024Z,21.70
2018-07-17T07:00:32.119Z,21.90
2018-07-17T07:03:00.208Z,22.00
2018-07-17T07:05:28.314Z,21.90
2018-07-17T07:07:56.422Z,21.90
2018-07-17T07:10:24.522Z,21.80
2018-07-17T07:12:52.627Z,21.80
2018-07-17T07:15:20.716Z,21.80
2018-07-17T07:17:48.817Z,21.90
2018-07-17T07:20:16.937Z,22.00
2018-07-17T07:22:45.107Z,22.20
2018-07-17T07:25:13.229Z,22.40
2018-07-17T07:27:41.394Z,22.50
2018-07-17T07:30:09.542Z,22.70
2018-07-17T07:32:38.250Z,23.10
2018-07-17T07:35:06.610Z,23.30
2018-07-17T07:37:40.523Z,23.40
2018-07-17T07:40:08.657Z,23.50
2018-07-17T07:42:36.825Z,23.80
2018-07-17T07:45:05.017Z,24.00
2018-07-17T07:47:33.189Z,24.10
2018-07-17T07:50:01.335Z,24.40
2018-07-17T07:52:29.488Z,24.50
2018-07-17T07:54:57.715Z,24.60
2018-07-17T07:57:25.889Z,24.80
2018-07-17T07:59:54.207Z,24.90
2018-07-17T08:02:22.635Z,25.00
2018-07-17T08:04:50.854Z,25.20
2018-07-17T08:07:19.471Z,25.30
2018-07-17T08:09:47.735Z,25.50
2018-07-17T08:12:15.992Z,25.80
2018-07-17T08:14:44.151Z,26.00
2018-07-17T08:17:12.265Z,26.20
2018-07-17T08:19:40.396Z,26.40
2018-07-17T08:22:08.534Z,26.40
2018-07-17T08:24:36.768Z,26.40
2018-07-17T08:27:04.913Z,26.10
2018-07-17T08:29:33.119Z,26.00
2018-07-17T08:32:01.263Z,26.00
2018-07-17T08:34:29.389Z,26.00
2018-07-17T08:36:57.574Z,26.20
2018-07-17T08:39:25.801Z,26.50
2018-07-17T08:41:54.083Z,26.60
2018-07-17T08:44:22.277Z,26.50
2018-07-17T08:46:50.660Z,26.70
2018-07-17T08:49:19.643Z,26.70
2018-07-17T08:51:48.021Z,26.90
2018-07-17T08:54:16.183Z,27.10
2018-07-17T08:56:44.330Z,27.20
2018-07-17T08:59:12.421Z,27.50
2018-07-17T09:01:40.658Z,27.60
2018-07-17T09:04:08.820Z,27.70
2018-07-17T09:06:36.986Z,27.60
2018-07-17T09:09:05.955Z,27.60
2018-07-17T09:11:34.100Z,27.70
2018-07-17T09:14:02.200Z,27.80
2018-07-17T09:16:30.370Z,27.60
2018-07-17T09:18:58.516Z,27.90
2018-07-17T09:21:26.807Z,28.20
2018-07-17T09:23:55.032Z,28.60
2018-07-17T09:26:23.422Z,28.60
2018-07-17T09:28:51.721Z,28.40
2018-07-17T09:31:20.684Z,28.30
2018-07-17T09:33:49.033Z,28.50
2018-07-17T09:36:17.346Z,28.80
2018-07-17T09:38:45.494Z,29.10
2018-07-17T09:41:13.633Z,29.20
2018-07-17T09:43:41.807Z,28.90
2018-07-17T09:46:09.951Z,28.80
2018-07-17T09:48:38.070Z,28.90
2018-07-17T09:51:06.913Z,29.10
2018-07-17T09:53:35.396Z,29.10
2018-07-17T09:56:03.503Z,29.00
2018-07-17T09:58:31.673Z,29.00
2018-07-17T10:01:05.211Z,29.20
2018-07-17T10:03:33.347Z,29.50
2018-07-17T10:06:01.476Z,29.80
2018-07-17T10:08:29.591Z,30.10
2018-07-17T10:10:57.785Z,30.30
2018-07-17T10:13:26.094Z,30.20
2018-07-17T10:15:54.342Z,30.10
2018-07-17T10:18:22.711Z,30.00
2018-07-17T10:20:52.435Z,29.80
2018-07-17T10:23:20.774Z,29.70
2018-07-17T10:25:49.403Z,29.60
2018-07-17T10:28:17.675Z,29.50
2018-07-17T10:30:45.805Z,29.20
2018-07-17T10:33:13.942Z,28.80
2018-07-17T10:35:42.116Z,28.40
2018-07-17T10:38:10.246Z,28.00
2018-07-17T10:40:38.379Z,27.70
2018-07-17T10:43:06.959Z,27.40
2018-07-17T10:45:35.094Z,27.10
2018-07-17T10:48:03.235Z,26.70
2018-07-17T10:50:31.370Z,26.50
2018-07-17T10:52:59.544Z,26.40
2018-07-17T10:55:27.766Z,26.40
2018-07-17T10:57:56.222Z,26.40
2018-07-17T11:00:25.148Z,26.40
2018-07-17T11:02:53.735Z,26.40
2018-07-17T11:05:22.325Z,26.40
2018-07-17T11:07:50.996Z,26.20
2018-07-17T11:10:20.176Z,26.00
2018-07-17T11:12:48.698Z,25.70
2018-07-17T11:15:16.858Z,25.40
2018-07-17T11:17:45.102Z,25.20
2018-07-17T11:20:13.291Z,25.10
2018-07-17T11:22:42.806Z,24.90
2018-07-17T11:25:10.951Z,24.90
2018-07-17T11:27:39.118Z,24.70
2018-07-17T11:30:07.688Z,24.90
2018-07-17T11:32:35.894Z,24.80
2018-07-17T11:35:04.339Z,25.00
2018-07-17T11:37:32.473Z,25.30
2018-07-17T11:40:00.624Z,25.60
2018-07-17T11:42:29.103Z,25.90
2018-07-17T11:44:57.377Z,26.30
2018-07-17T11:47:25.748Z,26.60
2018-07-17T11:49:54.867Z,26.90
2018-07-17T11:52:23.545Z,27.20
2018-07-17T11:54:52.362Z,27.40
2018-07-17T11:57:20.911Z,27.50
2018-07-17T11:59:49.691Z,27.50
2018-07-17T12:02:18.110Z,27.60
2018-07-17T12:04:46.346Z,27.60
2018-07-17T12:07:14.481Z,27.60
2018-07-17T12:09:42.681Z,27.90
2018-07-17T12:12:10.855Z,28.10
2018-07-17T12:14:39.013Z,28.30
2018-07-17T12:17:07.129Z,28.40
2018-07-17T12:19:35.282Z,28.50
2018-07-17T12:22:04.085Z,28.50
2018-07-17T12:24:32.301Z,28.50
2018-07-17T12:27:00.504Z,28.50
2018-07-17T12:29:28.628Z,28.60
2018-07-17T12:31:57.007Z,28.50
2018-07-17T12:34:25.566Z,28.60
2018-07-17T12:36:57.094Z,28.50
2018-07-17T12:39:25.406Z,28.30
2018-07-17T12:41:53.569Z,28.30
2018-07-17T12:44:21.880Z,28.30
2018-07-17T12:46:49.997Z,28.40
2018-07-17T12:49:18.578Z,28.50
2018-07-17T12:51:46.697Z,28.60
2018-07-17T12:54:14.899Z,28.40
2018-07-17T12:56:43.030Z,28.40
2018-07-17T12:59:11.210Z,28.10
2018-07-17T13:01:39.366Z,28.00
2018-07-17T13:04:07.520Z,28.10
2018-07-17T13:06:35.900Z,28.00
2018-07-17T13:09:07.159Z,27.70
2018-07-17T13:11:35.553Z,27.80
2018-07-17T13:14:03.731Z,27.90
2018-07-17T13:16:32.614Z,27.70
2018-07-17T13:19:00.790Z,27.80
2018-07-17T13:21:29.189Z,27.80
2018-07-17T13:23:58.653Z,28.00
2018-07-17T13:26:27.518Z,27.90
2018-07-17T13:28:56.228Z,27.90
2018-07-17T13:31:24.382Z,28.00
2018-07-17T13:33:52.587Z,28.00
2018-07-17T13:36:20.733Z,27.80
2018-07-17T13:38:48.869Z,27.50
2018-07-17T13:41:17.013Z,27.50
2018-07-17T13:43:45.203Z,27.30
2018-07-17T13:46:13.274Z,27.20
2018-07-17T13:48:41.414Z,27.10
2018-07-17T13:51:09.529Z,27.10
2018-07-17T13:53:37.681Z,27.10
2018-07-17T13:56:05.829Z,27.10
2018-07-17T13:58:33.959Z,27.10
2018-07-17T14:01:02.112Z,27.00
2018-07-17T14:03:31.192Z,27.00
2018-07-17T14:05:59.322Z,27.10
2018-07-17T14:08:27.447Z,27.00
2018-07-17T14:10:55.570Z,27.20
2018-07-17T14:13:23.721Z,27.40
2018-07-17T14:15:51.877Z,27.60
2018-07-17T14:18:20.023Z,27.90
2018-07-17T14:20:48.141Z,27.90
2018-07-17T14:23:16.287Z,27.80
2018-07-17T14:25:44.478Z,27.80
2018-07-17T14:28:13.253Z,27.70
2018-07-17T14:30:41.441Z,27.50
2018-07-17T14:33:09.561Z,27.40
2018-07-17T14:35:37.676Z,27.30
2018-07-17T14:38:05.829Z,27.10
2018-07-17T14:40:34.034Z,26.90
2018-07-17T14:43:02.177Z,26.80
2018-07-17T14:45:30.347Z,26.70
2018-07-17T14:47:58.489Z,26.60
2018-07-17T14:50:27.645Z,26.60
2018-07-17T14:52:55.800Z,26.50
2018-07-17T14:55:24.303Z,26.40
2018-07-17T14:57:53.641Z,25.80
2018-07-17T15:00:23.024Z,25.50
2018-07-17T15:02:53.690Z,25.00
2018-07-17T15:05:23.306Z,24.70
2018-07-17T15:07:51.512Z,24.50
2018-07-17T15:10:19.684Z,24.00
2018-07-17T15:12:47.831Z,23.50
2018-07-17T15:15:16.125Z,23.50
2018-07-17T15:17:44.296Z,23.60
2018-07-17T15:20:12.425Z,23.80
2018-07-17T15:22:40.648Z,24.00
2018-07-17T15:25:08.802Z,24.00
2018-07-17T15:27:36.996Z,24.00
2018-07-17T15:30:05.298Z,23.90
2018-07-17T15:32:33.495Z,23.90
2018-07-17T15:35:01.669Z,23.80
2018-07-17T15:37:30.098Z,23.70
2018-07-17T15:39:58.555Z,23.40
2018-07-17T15:42:26.944Z,23.40
2018-07-17T15:44:55.296Z,23.50
2018-07-17T15:47:23.999Z,23.70
2018-07-17T15:49:52.952Z,23.70
2018-07-17T15:52:21.761Z,23.60
2018-07-17T15:54:50.296Z,23.70
2018-07-17T15:57:19.362Z,23.70
2018-07-17T15:59:47.573Z,23.80
2018-07-17T16:02:15.661Z,23.80
2018-07-17T16:04:43.819Z,23.80
2018-07-17T16:07:11.974Z,24.00
2018-07-17T16:09:40.134Z,24.20
2018-07-17T16:12:08.432Z,24.40
2018-07-17T16:14:36.683Z,24.50
2018-07-17T16:17:05.369Z,24.70
2018-07-17T16:19:33.683Z,24.90
2018-07-17T16:22:01.937Z,25.00
2018-07-17T16:24:30.237Z,25.10
2018-07-17T16:26:58.709Z,25.20
2018-07-17T16:29:27.220Z,25.20
2018-07-17T16:31:56.022Z,25.20
2018-07-17T16:34:24.845Z,25.30
2018-07-17T16:36:53.404Z,25.40
2018-07-17T16:39:21.883Z,25.60
2018-07-17T16:41:50.874Z,25.70
2018-07-17T16:44:20.834Z,25.70
2018-07-17T16:46:49.162Z,25.60
2018-07-17T16:49:17.438Z,25.50
2018-07-17T16:51:45.602Z,25.50
2018-07-17T16:54:15.833Z,25.40
2018-07-17T16:56:43.938Z,25.30
2018-07-17T16:59:12.214Z,25.30
2018-07-17T17:01:40.387Z,25.30
2018-07-17T17:04:08.593Z,25.20
2018-07-17T17:06:36.794Z,25.20
2018-07-17T17:09:08.244Z,25.20
2018-07-17T17:11:36.410Z,25.20
2018-07-17T17:14:04.605Z,25.10
2018-07-17T17:16:32.922Z,25.20
2018-07-17T17:19:02.037Z,25.20
2018-07-17T17:21:30.159Z,25.10
2018-07-17T17:23:58.381Z,25.20
2018-07-17T17:26:26.465Z,25.20
2018-07-17T17:28:54.715Z,25.20
2018-07-17T17:31:22.957Z,25.20
2018-07-17T17:33:51.948Z,25.20
2018-07-17T17:36:21.249Z,25.00
2018-07-17T17:38:49.993Z,24.90
2018-07-17T17:41:19.094Z,24.80
2018-07-17T17:43:47.999Z,24.70
2018-07-17T17:46:16.233Z,24.60
2018-07-17T17:48:44.398Z,24.60
2018-07-17T17:51:12.539Z,24.60
2018-07-17T17:53:40.678Z,24.50
2018-07-17T17:56:08.848Z,24.40
2018-07-17T17:58:36.990Z,24.40
2018-07-17T18:01:05.162Z,24.30
2018-07-17T18:03:33.543Z,24.20
2018-07-17T18:06:02.041Z,24.00
2018-07-17T18:08:31.747Z,23.70
2018-07-17T18:11:00.129Z,23.60
2018-07-17T18:13:35.617Z,23.40
2018-07-17T18:16:03.831Z,23.20
2018-07-17T18:18:32.302Z,23.10
2018-07-17T18:21:01.218Z,23.00
2018-07-17T18:23:29.428Z,22.60
2018-07-17T18:25:57.694Z,22.40
2018-07-17T18:28:25.834Z,22.10
2018-07-17T18:30:53.997Z,21.90
2018-07-17T18:33:22.146Z,21.80
2018-07-17T18:35:50.382Z,21.70
2018-07-17T18:38:18.729Z,21.70
2018-07-17T18:40:46.871Z,21.70
2018-07-17T18:43:15.194Z,21.70
2018-07-17T18:45:43.421Z,21.50
2018-07-17T18:48:11.666Z,21.40
2018-07-17T18:50:39.786Z,21.30
2018-07-17T18:53:08.270Z,21.00
2018-07-17T18:55:36.625Z,20.50
2018-07-17T18:58:05.435Z,20.00
2018-07-17T19:00:34.408Z,19.60
2018-07-17T19:03:04.084Z,19.20
2018-07-17T19:05:32.957Z,18.90
2018-07-17T19:08:02.066Z,18.70
2018-07-17T19:10:30.552Z,18.70
2018-07-17T19:12:58.967Z,18.70
2018-07-17T19:15:27.187Z,18.70
2018-07-17T19:17:55.336Z,18.30
2018-07-17T19:20:23.527Z,18.20
2018-07-17T19:22:51.739Z,18.20
2018-07-17T19:25:19.988Z,18.30
2018-07-17T19:27:48.592Z,18.20
2018-07-17T19:30:16.681Z,18.20
2018-07-17T19:32:45.109Z,18.20
2018-07-17T19:35:13.765Z,18.30
2018-07-17T19:37:41.923Z,18.30
2018-07-17T19:40:10.116Z,18.30
2018-07-17T19:42:38.326Z,18.30
2018-07-17T19:45:06.636Z,18.20
2018-07-17T19:47:35.842Z,18.30
2018-07-17T19:50:06.885Z,18.10
2018-07-17T19:52:35.834Z,18.00
2018-07-17T19:55:05.503Z,18.10
2018-07-17T19:57:35.828Z,18.20
2018-07-17T20:00:05.907Z,18.20
2018-07-17T20:02:34.494Z,18.20
2018-07-17T20:05:03.831Z,18.30
2018-07-17T20:07:34.197Z,18.20
2018-07-17T20:10:02.897Z,18.20
2018-07-17T20:12:32.775Z,18.10
2018-07-17T20:15:02.069Z,18.10
2018-07-17T20:17:31.252Z,18.10
2018-07-17T20:20:00.357Z,18.10
2018-07-17T20:22:28.492Z,18.20
2018-07-17T20:24:56.698Z,18.20
2018-07-17T20:27:24.861Z,18.20
2018-07-17T20:29:53.054Z,18.20
2018-07-17T20:32:21.219Z,18.20
2018-07-17T20:34:49.366Z,18.20
2018-07-17T20:37:17.525Z,18.10
2018-07-17T20:39:45.677Z,18.10
2018-07-17T20:42:13.861Z,18.10
2018-07-17T20:44:42.130Z,18.10
2018-07-17T20:47:10.665Z,18.00
2018-07-17T20:49:39.378Z,18.00
2018-07-17T20:52:09.492Z,17.90
2018-07-17T20:54:38.826Z,17.90
2018-07-17T20:57:08.164Z,17.80
2018-07-17T20:59:37.925Z,17.80
2018-07-17T21:02:07.111Z,17.80
2018-07-17T21:04:36.641Z,17.70
2018-07-17T21:07:06.530Z,17.60
2018-07-17T21:09:36.583Z,17.60
2018-07-17T21:12:05.466Z,17.60
2018-07-17T21:14:34.390Z,17.60
2018-07-17T21:17:03.415Z,17.60
2018-07-17T21:19:31.666Z,17.60
2018-07-17T21:22:00.095Z,17.50
2018-07-17T21:24:28.174Z,17.40
2018-07-17T21:26:56.277Z,17.40
2018-07-17T21:29:24.362Z,17.40
2018-07-17T21:31:52.474Z,17.40
2018-07-17T21:34:20.593Z,17.40
2018-07-17T21:36:48.685Z,17.30
2018-07-17T21:39:16.814Z,17.30
2018-07-17T21:41:44.905Z,17.30
2018-07-17T21:44:13.310Z,17.30
2018-07-17T21:46:41.803Z,17.20
2018-07-17T21:49:09.890Z,17.20
2018-07-17T21:51:37.989Z,17.20
2018-07-17T21:54:06.412Z,17.20
2018-07-17T21:56:34.533Z,17.10
2018-07-17T21:59:02.646Z,17.10
2018-07-17T22:01:30.853Z,16.90
2018-07-17T22:03:59.020Z,16.90
2018-07-17T22:06:27.447Z,16.90
2018-07-17T22:08:55.671Z,16.90
2018-07-17T22:11:24.365Z,16.90
2018-07-17T22:13:52.455Z,16.90
2018-07-17T22:16:20.598Z,16.90
2018-07-17T22:18:48.715Z,16.80
2018-07-17T22:21:16.957Z,16.70
2018-07-17T22:23:45.114Z,16.60
2018-07-17T22:26:13.201Z,16.70
2018-07-17T22:28:41.306Z,16.70
2018-07-17T22:31:09.447Z,16.60
2018-07-17T22:33:37.556Z,16.70
2018-07-17T22:36:05.673Z,16.80
2018-07-17T22:38:33.765Z,16.80
2018-07-17T22:41:01.870Z,16.80
2018-07-17T22:43:29.970Z,16.80
2018-07-17T22:45:58.063Z,16.80
2018-07-17T22:48:26.169Z,16.90
2018-07-17T22:50:54.290Z,16.80
2018-07-17T22:53:22.455Z,16.90
2018-07-17T22:55:50.646Z,16.80
2018-07-17T22:58:18.777Z,16.80
2018-07-17T23:00:46.926Z,16.70
2018-07-17T23:03:15.048Z,16.60
2018-07-17T23:05:43.143Z,16.60
2018-07-17T23:08:11.294Z,16.50
2018-07-17T23:10:40.383Z,16.40
2018-07-17T23:13:08.474Z,16.30
2018-07-17T23:15:36.561Z,16.30
2018-07-17T23:18:04.643Z,16.20
2018-07-17T23:20:32.760Z,16.20
2018-07-17T23:23:00.875Z,16.20
2018-07-17T23:25:30.569Z,16.20
2018-07-17T23:27:59.344Z,16.20
2018-07-17T23:30:27.469Z,16.20
2018-07-17T23:32:55.572Z,16.30
2018-07-17T23:35:24.617Z,16.20
2018-07-17T23:37:53.194Z,16.20
2018-07-17T23:40:21.910Z,16.20
2018-07-17T23:42:50.081Z,16.20
2018-07-17T23:45:18.589Z,16.20
2018-07-17T23:47:47.500Z,16.20
2018-07-17T23:50:15.605Z,16.20
2018-07-17T23:52:43.686Z,16.20
2018-07-17T23:55:11.806Z,16.20
2018-07-17T23:57:39.890Z,16.30
